createdAt,value
2016-11-05T00:00:12.953Z,947
2016-11-05T00:01:13.887Z,947
2016-11-05T00:02:13.466Z,947
2016-11-05T00:03:12.662Z,947
2016-11-05T00:04:13.443Z,947
2016-11-05T00:05:10.996Z,947
2016-11-05T00:06:10.217Z,947
2016-11-05T00:07:12.682Z,947
2016-11-05T00:08:13.853Z,947
2016-11-05T00:09:13.059Z,947
2016-11-05T00:10:13.747Z,947
2016-11-05T00:11:12.477Z,947
2016-11-05T00:12:13.640Z,947
2016-11-05T00:13:13.324Z,947
2016-11-05T00:14:13.339Z,947
2016-11-05T00:15:12.859Z,947
2016-11-05T00:16:10.718Z,947
2016-11-05T00:17:12.479Z,947
2016-11-05T00:18:12.199Z,947
2016-11-05T00:19:13.370Z,947
2016-11-05T00:20:13.084Z,947
2016-11-05T00:21:13.392Z,947
2016-11-05T00:22:13.009Z,947
2016-11-05T00:23:13.762Z,947
2016-11-05T00:24:12.472Z,947
2016-11-05T00:25:10.643Z,947
2016-11-05T00:26:12.968Z,947
2016-11-05T00:27:12.554Z,947
2016-11-05T00:28:12.455Z,947
2016-11-05T00:29:12.912Z,947
2016-11-05T00:30:12.269Z,947
2016-11-05T00:31:13.487Z,947
2016-11-05T00:32:13.322Z,947
2016-11-05T00:33:12.627Z,947
2016-11-05T00:34:13.768Z,947
2016-11-05T00:35:13.310Z,947
2016-11-05T00:36:18.185Z,947
2016-11-05T00:37:12.204Z,947
2016-11-05T00:38:12.948Z,947
2016-11-05T00:39:10.660Z,947
2016-11-05T00:40:11.855Z,947
2016-11-05T00:41:09.529Z,947
2016-11-05T00:42:12.536Z,947
2016-11-05T00:43:12.540Z,947
2016-11-05T00:44:13.178Z,947
2016-11-05T00:45:13.248Z,947
2016-11-05T00:46:12.291Z,947
2016-11-05T00:47:12.971Z,947
2016-11-05T00:48:12.569Z,946
2016-11-05T00:49:11.399Z,946
2016-11-05T00:50:13.185Z,946
2016-11-05T00:51:09.222Z,947
2016-11-05T00:52:13.126Z,946
2016-11-05T00:53:10.647Z,946
2016-11-05T00:54:12.894Z,946
2016-11-05T00:55:13.205Z,946
2016-11-05T00:56:13.993Z,946
2016-11-05T00:57:12.108Z,947
2016-11-05T00:58:12.296Z,947
2016-11-05T00:59:13.193Z,947
2016-11-05T01:00:12.388Z,947
2016-11-05T01:01:13.711Z,947
2016-11-05T01:02:12.469Z,947
2016-11-05T01:03:12.565Z,947
2016-11-05T01:04:12.910Z,947
2016-11-05T01:05:14.719Z,946
2016-11-05T01:06:14.936Z,946
2016-11-05T01:07:15.275Z,947
2016-11-05T01:08:12.553Z,947
2016-11-05T01:09:12.240Z,947
2016-11-05T01:10:12.480Z,946
2016-11-05T01:11:14.263Z,947
2016-11-05T01:12:12.450Z,946
2016-11-05T01:13:12.201Z,946
2016-11-05T01:14:14.476Z,946
2016-11-05T01:15:12.293Z,946
2016-11-05T01:16:13.258Z,946
2016-11-05T01:17:13.020Z,946
2016-11-05T01:18:13.607Z,946
2016-11-05T01:19:12.652Z,946
2016-11-05T01:20:13.594Z,946
2016-11-05T01:21:13.768Z,946
2016-11-05T01:22:13.553Z,946
2016-11-05T01:23:09.873Z,946
2016-11-05T01:24:15.060Z,946
2016-11-05T01:25:12.595Z,946
2016-11-05T01:26:14.856Z,946
2016-11-05T01:27:13.397Z,946
2016-11-05T01:28:13.590Z,946
2016-11-05T01:29:11.094Z,946
2016-11-05T01:30:13.501Z,946
2016-11-05T01:31:13.318Z,946
2016-11-05T01:32:12.582Z,946
2016-11-05T01:33:13.235Z,946
2016-11-05T01:34:12.443Z,946
2016-11-05T01:35:13.793Z,946
2016-11-05T01:36:14.032Z,946
2016-11-05T01:37:09.930Z,946
2016-11-05T01:38:15.399Z,946
2016-11-05T01:39:13.937Z,946
2016-11-05T01:40:13.119Z,946
2016-11-05T01:41:14.581Z,946
2016-11-05T01:42:14.711Z,946
2016-11-05T01:43:14.709Z,946
2016-11-05T01:44:12.336Z,946
2016-11-05T01:45:12.612Z,946
2016-11-05T01:46:13.420Z,946
2016-11-05T01:47:13.400Z,946
2016-11-05T01:48:13.843Z,946
2016-11-05T01:49:14.607Z,946
2016-11-05T01:50:13.624Z,946
2016-11-05T01:51:13.641Z,946
2016-11-05T01:52:11.336Z,946
2016-11-05T01:53:13.924Z,946
2016-11-05T01:54:13.072Z,946
2016-11-05T01:55:12.855Z,946
2016-11-05T01:56:13.463Z,946
2016-11-05T01:57:12.592Z,946
2016-11-05T01:58:13.424Z,946
2016-11-05T01:59:11.902Z,946
2016-11-05T02:00:14.801Z,946
2016-11-05T02:01:15.075Z,946
2016-11-05T02:02:13.825Z,946
2016-11-05T02:03:19.137Z,946
2016-11-05T02:04:13.637Z,946
2016-11-05T02:05:13.924Z,946
2016-11-05T02:06:13.940Z,946
2016-11-05T02:07:12.623Z,946
2016-11-05T02:08:12.420Z,946
2016-11-05T02:09:13.312Z,946
2016-11-05T02:10:14.916Z,946
2016-11-05T02:11:12.739Z,946
2016-11-05T02:12:14.474Z,946
2016-11-05T02:13:12.479Z,946
2016-11-05T02:14:13.405Z,946
2016-11-05T02:15:13.476Z,946
2016-11-05T02:16:13.004Z,946
2016-11-05T02:17:12.860Z,946
2016-11-05T02:18:14.883Z,946
2016-11-05T02:19:15.860Z,946
2016-11-05T02:20:14.750Z,946
2016-11-05T02:21:15.762Z,946
2016-11-05T02:22:14.456Z,946
2016-11-05T02:23:12.418Z,946
2016-11-05T02:24:14.149Z,946
2016-11-05T02:25:13.558Z,946
2016-11-05T02:26:12.675Z,946
2016-11-05T02:27:13.554Z,946
2016-11-05T02:28:12.325Z,946
2016-11-05T02:29:12.120Z,946
2016-11-05T02:30:13.713Z,946
2016-11-05T02:31:14.891Z,946
2016-11-05T02:32:12.377Z,946
2016-11-05T02:33:13.448Z,946
2016-11-05T02:34:12.669Z,946
2016-11-05T02:35:11.351Z,946
2016-11-05T02:36:12.368Z,946
2016-11-05T02:37:13.995Z,946
2016-11-05T02:38:12.050Z,946
2016-11-05T02:39:10.921Z,946
2016-11-05T02:40:13.944Z,946
2016-11-05T02:41:09.900Z,946
2016-11-05T02:42:13.429Z,946
2016-11-05T02:43:13.501Z,946
2016-11-05T02:44:12.367Z,946
2016-11-05T02:45:11.076Z,946
2016-11-05T02:46:12.034Z,946
2016-11-05T02:47:12.655Z,945
2016-11-05T02:48:13.389Z,946
2016-11-05T02:49:14.421Z,945
2016-11-05T02:50:10.133Z,945
2016-11-05T02:51:12.698Z,945
2016-11-05T02:52:12.652Z,945
2016-11-05T02:53:13.725Z,945
2016-11-05T02:54:12.336Z,945
2016-11-05T02:55:13.035Z,946
2016-11-05T02:56:10.098Z,945
2016-11-05T02:57:13.427Z,945
2016-11-05T02:58:11.771Z,945
2016-11-05T02:59:13.294Z,945
2016-11-05T03:00:13.357Z,945
2016-11-05T03:01:12.077Z,945
2016-11-05T03:02:10.034Z,945
2016-11-05T03:03:12.976Z,945
2016-11-05T03:04:13.456Z,945
2016-11-05T03:05:12.916Z,945
2016-11-05T03:06:12.816Z,945
2016-11-05T03:07:13.777Z,945
2016-11-05T03:08:10.852Z,945
2016-11-05T03:09:10.039Z,945
2016-11-05T03:10:14.087Z,945
2016-11-05T03:11:13.553Z,945
2016-11-05T03:12:13.199Z,945
2016-11-05T03:13:11.754Z,945
2016-11-05T03:14:13.556Z,945
2016-11-05T03:15:10.548Z,945
2016-11-05T03:16:13.347Z,945
2016-11-05T03:17:14.248Z,945
2016-11-05T03:18:12.383Z,945
2016-11-05T03:19:12.649Z,945
2016-11-05T03:20:13.343Z,945
2016-11-05T03:21:12.632Z,945
2016-11-05T03:22:12.332Z,945
2016-11-05T03:23:10.497Z,945
2016-11-05T03:24:13.058Z,945
2016-11-05T03:25:13.066Z,945
2016-11-05T03:26:11.457Z,945
2016-11-05T03:27:11.642Z,945
2016-11-05T03:28:13.859Z,945
2016-11-05T03:29:13.241Z,945
2016-11-05T03:30:12.775Z,945
2016-11-05T03:31:09.779Z,945
2016-11-05T03:32:13.263Z,945
2016-11-05T03:33:12.399Z,945
2016-11-05T03:34:13.571Z,945
2016-11-05T03:35:12.035Z,945
2016-11-05T03:36:13.615Z,945
2016-11-05T03:37:10.815Z,945
2016-11-05T03:38:12.278Z,945
2016-11-05T03:39:13.100Z,945
2016-11-05T03:40:13.644Z,945
2016-11-05T03:41:13.506Z,945
2016-11-05T03:42:13.675Z,945
2016-11-05T03:43:12.499Z,945
2016-11-05T03:44:13.291Z,945
2016-11-05T03:45:11.716Z,945
2016-11-05T03:46:10.147Z,945
2016-11-05T03:47:15.206Z,945
2016-11-05T03:48:13.352Z,945
2016-11-05T03:49:13.409Z,945
2016-11-05T03:50:13.066Z,945
2016-11-05T03:51:12.696Z,945
2016-11-05T03:52:11.777Z,945
2016-11-05T03:53:12.467Z,945
2016-11-05T03:54:11.449Z,945
2016-11-05T03:55:13.635Z,945
2016-11-05T03:56:13.776Z,945
2016-11-05T03:57:10.695Z,945
2016-11-05T03:58:11.201Z,945
2016-11-05T03:59:12.867Z,945
2016-11-05T04:00:12.135Z,945
2016-11-05T04:01:13.066Z,945
2016-11-05T04:02:13.583Z,945
2016-11-05T04:03:13.216Z,945
2016-11-05T04:04:12.898Z,945
2016-11-05T04:05:13.664Z,945
2016-11-05T04:06:13.526Z,945
2016-11-05T04:07:13.636Z,945
2016-11-05T04:08:09.228Z,945
2016-11-05T04:09:13.718Z,945
2016-11-05T04:10:13.736Z,945
2016-11-05T04:11:10.570Z,945
2016-11-05T04:12:12.482Z,945
2016-11-05T04:13:12.363Z,945
2016-11-05T04:14:13.375Z,945
2016-11-05T04:15:19.308Z,945
2016-11-05T04:16:11.719Z,945
2016-11-05T04:17:11.294Z,945
2016-11-05T04:18:12.288Z,945
2016-11-05T04:19:13.195Z,945
2016-11-05T04:20:12.058Z,945
2016-11-05T04:21:13.247Z,945
2016-11-05T04:22:12.772Z,945
2016-11-05T04:23:13.099Z,945
2016-11-05T04:24:13.532Z,945
2016-11-05T04:25:14.625Z,945
2016-11-05T04:26:13.302Z,945
2016-11-05T04:27:12.509Z,945
2016-11-05T04:28:12.416Z,945
2016-11-05T04:29:13.893Z,945
2016-11-05T04:30:10.073Z,945
2016-11-05T04:31:09.774Z,945
2016-11-05T04:32:13.051Z,945
2016-11-05T04:33:13.025Z,945
2016-11-05T04:34:11.416Z,945
2016-11-05T04:35:12.721Z,945
2016-11-05T04:36:12.418Z,945
2016-11-05T04:37:12.323Z,945
2016-11-05T04:38:13.036Z,945
2016-11-05T04:39:12.536Z,945
2016-11-05T04:40:13.211Z,945
2016-11-05T04:41:13.225Z,945
2016-11-05T04:42:12.739Z,945
2016-11-05T04:43:12.528Z,945
2016-11-05T04:44:13.174Z,945
2016-11-05T04:45:12.675Z,945
2016-11-05T04:46:13.024Z,945
2016-11-05T04:47:13.126Z,944
2016-11-05T04:48:12.651Z,945
2016-11-05T04:49:10.170Z,944
2016-11-05T04:50:12.190Z,944
2016-11-05T04:51:12.946Z,945
2016-11-05T04:52:12.286Z,944
2016-11-05T04:53:12.544Z,944
2016-11-05T04:54:13.315Z,944
2016-11-05T04:55:11.804Z,944
2016-11-05T04:56:14.080Z,944
2016-11-05T04:57:13.943Z,944
2016-11-05T04:58:13.934Z,944
2016-11-05T04:59:14.834Z,944
2016-11-05T05:00:12.570Z,944
2016-11-05T05:01:13.575Z,944
2016-11-05T05:02:12.364Z,944
2016-11-05T05:03:09.893Z,945
2016-11-05T05:04:11.933Z,945
2016-11-05T05:05:12.754Z,944
2016-11-05T05:06:13.222Z,944
2016-11-05T05:07:12.751Z,944
2016-11-05T05:08:12.932Z,944
2016-11-05T05:09:12.571Z,944
2016-11-05T05:10:12.231Z,944
2016-11-05T05:11:12.220Z,944
2016-11-05T05:12:10.271Z,944
2016-11-05T05:13:12.736Z,944
2016-11-05T05:14:13.819Z,944
2016-11-05T05:15:13.747Z,944
2016-11-05T05:16:13.555Z,944
2016-11-05T05:17:12.615Z,944
2016-11-05T05:18:12.353Z,944
2016-11-05T05:19:15.545Z,944
2016-11-05T05:20:13.078Z,944
2016-11-05T05:21:09.883Z,944
2016-11-05T05:22:12.642Z,944
2016-11-05T05:23:12.276Z,944
2016-11-05T05:24:13.361Z,944
2016-11-05T05:25:18.940Z,944
2016-11-05T05:26:13.826Z,944
2016-11-05T05:27:12.338Z,944
2016-11-05T05:28:12.194Z,944
2016-11-05T05:29:12.484Z,944
2016-11-05T05:30:13.109Z,944
2016-11-05T05:31:11.831Z,944
2016-11-05T05:32:15.751Z,944
2016-11-05T05:33:12.007Z,944
2016-11-05T05:34:13.211Z,944
2016-11-05T05:35:12.473Z,944
2016-11-05T05:36:13.752Z,944
2016-11-05T05:37:09.555Z,944
2016-11-05T05:38:13.602Z,944
2016-11-05T05:39:17.338Z,944
2016-11-05T05:40:12.451Z,944
2016-11-05T05:41:08.975Z,944
2016-11-05T05:42:12.893Z,944
2016-11-05T05:43:11.118Z,944
2016-11-05T05:44:13.731Z,944
2016-11-05T05:45:13.568Z,944
2016-11-05T05:46:11.900Z,944
2016-11-05T05:47:11.929Z,944
2016-11-05T05:48:12.248Z,944
2016-11-05T05:49:13.128Z,944
2016-11-05T05:50:13.226Z,944
2016-11-05T05:51:09.388Z,944
2016-11-05T05:52:13.131Z,944
2016-11-05T05:53:11.800Z,944
2016-11-05T05:54:13.339Z,944
2016-11-05T05:55:12.822Z,944
2016-11-05T05:56:13.415Z,944
2016-11-05T05:57:13.013Z,944
2016-11-05T05:58:11.533Z,944
2016-11-05T05:59:13.419Z,944
2016-11-05T06:00:11.918Z,944
2016-11-05T06:01:12.515Z,944
2016-11-05T06:02:11.012Z,944
2016-11-05T06:03:12.266Z,944
2016-11-05T06:04:13.117Z,944
2016-11-05T06:05:11.542Z,944
2016-11-05T06:06:13.842Z,944
2016-11-05T06:07:13.068Z,944
2016-11-05T06:08:13.217Z,944
2016-11-05T06:09:11.906Z,944
2016-11-05T06:10:11.551Z,944
2016-11-05T06:11:12.658Z,944
2016-11-05T06:12:13.527Z,944
2016-11-05T06:13:12.258Z,944
2016-11-05T06:14:19.255Z,944
2016-11-05T06:15:11.593Z,944
2016-11-05T06:16:13.400Z,943
2016-11-05T06:17:15.020Z,943
2016-11-05T06:18:11.000Z,943
2016-11-05T06:19:11.990Z,943
2016-11-05T06:20:13.302Z,943
2016-11-05T06:21:13.168Z,943
2016-11-05T06:22:11.932Z,943
2016-11-05T06:23:10.790Z,943
2016-11-05T06:24:14.231Z,943
2016-11-05T06:25:12.800Z,943
2016-11-05T06:26:12.208Z,943
2016-11-05T06:27:12.244Z,943
2016-11-05T06:28:13.246Z,943
2016-11-05T06:29:13.212Z,943
2016-11-05T06:30:10.032Z,943
2016-11-05T06:31:12.562Z,943
2016-11-05T06:32:12.807Z,943
2016-11-05T06:33:12.912Z,943
2016-11-05T06:34:13.644Z,943
2016-11-05T06:35:12.916Z,944
2016-11-05T06:36:10.738Z,943
2016-11-05T06:37:12.982Z,943
2016-11-05T06:38:14.171Z,944
2016-11-05T06:39:12.136Z,943
2016-11-05T06:40:11.911Z,943
2016-11-05T06:41:12.505Z,943
2016-11-05T06:42:13.477Z,943
2016-11-05T06:43:16.588Z,943
2016-11-05T06:44:12.602Z,943
2016-11-05T06:45:10.023Z,943
2016-11-05T06:46:13.316Z,943
2016-11-05T06:47:12.259Z,943
2016-11-05T06:48:13.491Z,943
2016-11-05T06:49:12.411Z,943
2016-11-05T06:50:13.730Z,943
2016-11-05T06:51:12.307Z,943
2016-11-05T06:52:12.309Z,943
2016-11-05T06:53:13.466Z,943
2016-11-05T06:54:12.453Z,943
2016-11-05T06:55:12.561Z,943
2016-11-05T06:56:13.009Z,943
2016-11-05T06:57:13.180Z,943
2016-11-05T06:58:11.712Z,943
2016-11-05T06:59:12.252Z,943
2016-11-05T07:00:12.505Z,943
2016-11-05T07:01:13.120Z,943
2016-11-05T07:02:14.094Z,943
2016-11-05T07:03:18.202Z,943
2016-11-05T07:04:12.796Z,943
2016-11-05T07:05:13.310Z,943
2016-11-05T07:06:09.606Z,943
2016-11-05T07:07:12.120Z,943
2016-11-05T07:08:11.962Z,943
2016-11-05T07:09:13.079Z,943
2016-11-05T07:10:12.287Z,943
2016-11-05T07:11:12.980Z,943
2016-11-05T07:12:13.071Z,943
2016-11-05T07:13:10.771Z,943
2016-11-05T07:14:12.736Z,943
2016-11-05T07:15:09.511Z,943
2016-11-05T07:16:13.938Z,943
2016-11-05T07:17:10.803Z,943
2016-11-05T07:18:12.214Z,943
2016-11-05T07:19:13.093Z,943
2016-11-05T07:20:14.212Z,943
2016-11-05T07:21:16.126Z,943
2016-11-05T07:22:13.326Z,943
2016-11-05T07:23:10.805Z,943
2016-11-05T07:24:14.280Z,943
2016-11-05T07:25:12.421Z,943
2016-11-05T07:26:12.286Z,943
2016-11-05T07:27:10.085Z,943
2016-11-05T07:28:13.725Z,943
2016-11-05T07:29:08.955Z,943
2016-11-05T07:30:11.153Z,943
2016-11-05T07:31:08.626Z,943
2016-11-05T07:32:12.244Z,943
2016-11-05T07:33:13.566Z,943
2016-11-05T07:34:13.278Z,943
2016-11-05T07:35:13.815Z,943
2016-11-05T07:36:13.410Z,943
2016-11-05T07:37:09.063Z,943
2016-11-05T07:38:14.325Z,943
2016-11-05T07:39:11.665Z,943
2016-11-05T07:40:12.461Z,943
2016-11-05T07:41:19.040Z,943
2016-11-05T07:42:12.315Z,943
2016-11-05T07:43:12.336Z,943
2016-11-05T07:44:13.641Z,943
2016-11-05T07:45:14.722Z,943
2016-11-05T07:46:09.680Z,943
2016-11-05T07:47:11.740Z,943
2016-11-05T07:48:13.280Z,943
2016-11-05T07:49:14.556Z,943
2016-11-05T07:50:12.656Z,943
2016-11-05T07:51:12.575Z,943
2016-11-05T07:52:12.643Z,943
2016-11-05T07:53:12.726Z,943
2016-11-05T07:54:12.653Z,943
2016-11-05T07:55:11.957Z,943
2016-11-05T07:56:11.796Z,943
2016-11-05T07:57:08.914Z,943
2016-11-05T07:58:12.150Z,943
2016-11-05T07:59:13.347Z,943
2016-11-05T08:00:12.717Z,943
2016-11-05T08:01:13.180Z,943
2016-11-05T08:02:12.024Z,943
2016-11-05T08:03:13.742Z,943
2016-11-05T08:04:12.941Z,943
2016-11-05T08:05:12.198Z,943
2016-11-05T08:06:12.388Z,943
2016-11-05T08:07:12.501Z,943
2016-11-05T08:08:12.113Z,943
2016-11-05T08:09:10.379Z,943
2016-11-05T08:10:12.460Z,943
2016-11-05T08:11:13.992Z,943
2016-11-05T08:12:12.492Z,943
2016-11-05T08:13:13.138Z,943
2016-11-05T08:14:12.372Z,942
2016-11-05T08:15:11.946Z,942
2016-11-05T08:16:12.006Z,942
2016-11-05T08:17:12.409Z,942
2016-11-05T08:18:15.025Z,942
2016-11-05T08:19:13.061Z,942
2016-11-05T08:20:12.112Z,942
2016-11-05T08:21:12.523Z,942
2016-11-05T08:22:12.183Z,942
2016-11-05T08:23:12.498Z,942
2016-11-05T08:24:16.146Z,942
2016-11-05T08:25:15.764Z,942
2016-11-05T08:26:12.655Z,942
2016-11-05T08:27:12.846Z,942
2016-11-05T08:28:12.615Z,942
2016-11-05T08:29:13.234Z,942
2016-11-05T08:30:13.043Z,942
2016-11-05T08:31:12.585Z,942
2016-11-05T08:32:12.549Z,942
2016-11-05T08:33:09.838Z,942
2016-11-05T08:34:12.038Z,942
2016-11-05T08:35:10.627Z,941
2016-11-05T08:36:12.555Z,941
2016-11-05T08:37:12.952Z,941
2016-11-05T08:38:13.268Z,942
2016-11-05T08:39:13.009Z,942
2016-11-05T08:40:12.580Z,941
2016-11-05T08:41:14.856Z,941
2016-11-05T08:42:12.267Z,941
2016-11-05T08:43:12.768Z,941
2016-11-05T08:44:12.672Z,941
2016-11-05T08:45:11.469Z,941
2016-11-05T08:46:13.058Z,941
2016-11-05T08:47:12.535Z,942
2016-11-05T08:48:12.953Z,942
2016-11-05T08:49:10.972Z,942
2016-11-05T08:50:12.376Z,942
2016-11-05T08:51:12.835Z,942
2016-11-05T08:52:13.595Z,942
2016-11-05T08:53:12.710Z,942
2016-11-05T08:54:12.130Z,942
2016-11-05T08:55:12.771Z,942
2016-11-05T08:56:11.841Z,942
2016-11-05T08:57:12.584Z,942
2016-11-05T08:58:13.815Z,942
2016-11-05T08:59:14.864Z,942
2016-11-05T09:00:12.175Z,942
2016-11-05T09:01:13.247Z,942
2016-11-05T09:02:12.327Z,942
2016-11-05T09:03:14.090Z,942
2016-11-05T09:04:13.346Z,942
2016-11-05T09:05:12.620Z,942
2016-11-05T09:06:12.370Z,941
2016-11-05T09:07:13.524Z,941
2016-11-05T09:08:13.006Z,941
2016-11-05T09:09:11.839Z,941
2016-11-05T09:10:12.796Z,941
2016-11-05T09:11:12.510Z,941
2016-11-05T09:12:13.078Z,941
2016-11-05T09:13:14.278Z,941
2016-11-05T09:14:11.507Z,941
2016-11-05T09:15:13.558Z,941
2016-11-05T09:16:09.448Z,941
2016-11-05T09:17:12.819Z,941
2016-11-05T09:18:10.811Z,941
2016-11-05T09:19:13.137Z,941
2016-11-05T09:20:12.595Z,941
2016-11-05T09:21:13.113Z,941
2016-11-05T09:22:14.308Z,941
2016-11-05T09:23:09.137Z,941
2016-11-05T09:24:13.036Z,941
2016-11-05T09:25:09.112Z,941
2016-11-05T09:26:12.975Z,941
2016-11-05T09:27:12.210Z,941
2016-11-05T09:28:12.442Z,941
2016-11-05T09:29:12.906Z,941
2016-11-05T09:30:11.433Z,941
2016-11-05T09:31:10.493Z,941
2016-11-05T09:32:13.037Z,941
2016-11-05T09:33:09.997Z,941
2016-11-05T09:34:12.775Z,941
2016-11-05T09:35:13.883Z,941
2016-11-05T09:36:12.193Z,941
2016-11-05T09:37:12.554Z,941
2016-11-05T09:38:11.458Z,941
2016-11-05T09:39:13.769Z,941
2016-11-05T09:40:13.187Z,941
2016-11-05T09:41:11.871Z,941
2016-11-05T09:42:10.525Z,941
2016-11-05T09:43:14.039Z,941
2016-11-05T09:44:13.162Z,941
2016-11-05T09:45:12.201Z,941
2016-11-05T09:46:12.781Z,941
2016-11-05T09:47:13.548Z,941
2016-11-05T09:48:12.495Z,941
2016-11-05T09:49:11.833Z,941
2016-11-05T09:50:15.140Z,941
2016-11-05T09:51:13.346Z,941
2016-11-05T09:52:14.800Z,941
2016-11-05T09:53:14.606Z,941
2016-11-05T09:54:13.940Z,941
2016-11-05T09:55:12.719Z,941
2016-11-05T09:56:11.793Z,941
2016-11-05T09:57:12.571Z,941
2016-11-05T09:58:14.379Z,941
2016-11-05T09:59:13.127Z,941
2016-11-05T10:00:14.063Z,941
2016-11-05T10:01:13.433Z,941
2016-11-05T10:02:13.308Z,941
2016-11-05T10:03:12.114Z,941
2016-11-05T10:04:12.267Z,941
2016-11-05T10:05:12.312Z,941
2016-11-05T10:06:13.187Z,941
2016-11-05T10:07:13.472Z,940
2016-11-05T10:08:10.238Z,941
2016-11-05T10:09:12.198Z,940
2016-11-05T10:10:12.530Z,940
2016-11-05T10:11:13.321Z,941
2016-11-05T10:12:08.851Z,940
2016-11-05T10:13:12.774Z,941
2016-11-05T10:14:12.759Z,940
2016-11-05T10:15:13.962Z,940
2016-11-05T10:16:13.624Z,940
2016-11-05T10:17:11.461Z,940
2016-11-05T10:18:12.794Z,940
2016-11-05T10:19:13.504Z,940
2016-11-05T10:20:12.775Z,940
2016-11-05T10:21:12.297Z,940
2016-11-05T10:22:12.924Z,940
2016-11-05T10:23:13.381Z,940
2016-11-05T10:24:12.161Z,940
2016-11-05T10:25:12.014Z,940
2016-11-05T10:26:12.210Z,940
2016-11-05T10:27:13.115Z,940
2016-11-05T10:28:12.352Z,940
2016-11-05T10:29:12.813Z,940
2016-11-05T10:30:14.016Z,940
2016-11-05T10:31:13.099Z,940
2016-11-05T10:32:12.337Z,940
2016-11-05T10:33:12.594Z,940
2016-11-05T10:34:12.056Z,940
2016-11-05T10:35:14.154Z,940
2016-11-05T10:36:11.617Z,940
2016-11-05T10:37:12.790Z,940
2016-11-05T10:38:12.630Z,940
2016-11-05T10:39:13.883Z,940
2016-11-05T10:40:12.371Z,940
2016-11-05T10:41:09.152Z,940
2016-11-05T10:42:12.568Z,940
2016-11-05T10:43:12.526Z,940
2016-11-05T10:44:13.002Z,940
2016-11-05T10:45:12.856Z,940
2016-11-05T10:46:14.348Z,940
2016-11-05T10:47:13.063Z,940
2016-11-05T10:48:12.961Z,940
2016-11-05T10:49:12.634Z,940
2016-11-05T10:50:13.236Z,940
2016-11-05T10:51:11.657Z,939
2016-11-05T10:52:11.890Z,939
2016-11-05T10:53:12.830Z,939
2016-11-05T10:54:12.917Z,939
2016-11-05T10:55:13.353Z,939
2016-11-05T10:56:12.572Z,939
2016-11-05T10:57:11.976Z,939
2016-11-05T10:58:12.709Z,939
2016-11-05T10:59:11.678Z,939
2016-11-05T11:00:09.796Z,939
2016-11-05T11:01:13.935Z,939
2016-11-05T11:02:12.841Z,939
2016-11-05T11:03:12.639Z,939
2016-11-05T11:04:13.010Z,939
2016-11-05T11:05:08.946Z,939
2016-11-05T11:06:12.891Z,939
2016-11-05T11:07:12.590Z,939
2016-11-05T11:08:12.312Z,939
2016-11-05T11:09:13.898Z,939
2016-11-05T11:10:12.760Z,939
2016-11-05T11:11:12.702Z,939
2016-11-05T11:12:13.102Z,939
2016-11-05T11:13:14.004Z,939
2016-11-05T11:14:12.001Z,939
2016-11-05T11:15:12.249Z,939
2016-11-05T11:16:12.750Z,939
2016-11-05T11:17:12.281Z,939
2016-11-05T11:18:13.344Z,939
2016-11-05T11:19:12.079Z,939
2016-11-05T11:20:12.549Z,939
2016-11-05T11:21:12.820Z,939
2016-11-05T11:22:13.228Z,939
2016-11-05T11:23:10.609Z,939
2016-11-05T11:24:13.651Z,939
2016-11-05T11:25:20.448Z,939
2016-11-05T11:26:12.210Z,939
2016-11-05T11:27:12.445Z,939
2016-11-05T11:28:14.957Z,939
2016-11-05T11:29:18.609Z,939
2016-11-05T11:30:11.488Z,939
2016-11-05T11:31:12.689Z,939
2016-11-05T11:32:12.835Z,939
2016-11-05T11:33:14.271Z,939
2016-11-05T11:34:13.322Z,939
2016-11-05T11:35:12.258Z,939
2016-11-05T11:36:12.744Z,939
2016-11-05T11:37:12.081Z,939
2016-11-05T11:38:12.429Z,939
2016-11-05T11:39:11.805Z,939
2016-11-05T11:40:12.456Z,939
2016-11-05T11:41:12.751Z,939
2016-11-05T11:42:11.865Z,938
2016-11-05T11:43:12.418Z,939
2016-11-05T11:44:09.248Z,939
2016-11-05T11:45:12.445Z,939
2016-11-05T11:46:11.993Z,939
2016-11-05T11:47:12.729Z,939
2016-11-05T11:48:12.892Z,938
2016-11-05T11:49:12.972Z,939
2016-11-05T11:50:12.605Z,938
2016-11-05T11:51:13.369Z,938
2016-11-05T11:52:12.222Z,938
2016-11-05T11:53:10.724Z,938
2016-11-05T11:54:13.748Z,938
2016-11-05T11:55:13.515Z,938
2016-11-05T11:56:12.053Z,938
2016-11-05T11:57:13.017Z,938
2016-11-05T11:58:13.295Z,938
2016-11-05T11:59:12.428Z,938
2016-11-05T12:00:13.051Z,938
2016-11-05T12:01:13.253Z,938
2016-11-05T12:02:12.660Z,938
2016-11-05T12:03:14.502Z,938
2016-11-05T12:04:09.673Z,938
2016-11-05T12:05:13.729Z,938
2016-11-05T12:06:10.304Z,938
2016-11-05T12:07:12.261Z,938
2016-11-05T12:08:13.739Z,938
2016-11-05T12:09:10.698Z,938
2016-11-05T12:10:13.691Z,938
2016-11-05T12:11:14.118Z,938
2016-11-05T12:12:11.861Z,938
2016-11-05T12:13:12.164Z,938
2016-11-05T12:14:11.339Z,938
2016-11-05T12:15:12.958Z,938
2016-11-05T12:16:11.994Z,938
2016-11-05T12:17:12.796Z,938
2016-11-05T12:18:13.203Z,938
2016-11-05T12:19:23.232Z,938
2016-11-05T12:20:12.073Z,938
2016-11-05T12:21:12.629Z,938
2016-11-05T12:22:13.467Z,938
2016-11-05T12:23:12.292Z,938
2016-11-05T12:24:13.163Z,938
2016-11-05T12:25:14.158Z,938
2016-11-05T12:26:13.370Z,938
2016-11-05T12:27:13.182Z,938
2016-11-05T12:28:12.644Z,938
2016-11-05T12:29:11.873Z,938
2016-11-05T12:30:11.678Z,938
2016-11-05T12:31:19.412Z,938
2016-11-05T12:32:12.433Z,938
2016-11-05T12:33:12.065Z,938
2016-11-05T12:34:12.495Z,938
2016-11-05T12:35:11.428Z,938
2016-11-05T12:36:10.777Z,938
2016-11-05T12:37:12.002Z,938
2016-11-05T12:38:13.613Z,938
2016-11-05T12:39:10.522Z,938
2016-11-05T12:40:14.035Z,938
2016-11-05T12:41:13.084Z,938
2016-11-05T12:42:12.755Z,938
2016-11-05T12:43:12.455Z,938
2016-11-05T12:44:12.034Z,938
2016-11-05T12:45:11.991Z,938
2016-11-05T12:46:12.794Z,938
2016-11-05T12:47:12.448Z,938
2016-11-05T12:48:12.951Z,938
2016-11-05T12:49:12.397Z,938
2016-11-05T12:50:12.402Z,938
2016-11-05T12:51:12.390Z,938
2016-11-05T12:52:12.219Z,938
2016-11-05T12:53:14.521Z,938
2016-11-05T12:54:12.375Z,938
2016-11-05T12:55:11.624Z,938
2016-11-05T12:56:12.428Z,938
2016-11-05T12:57:12.787Z,938
2016-11-05T12:58:12.583Z,938
2016-11-05T12:59:13.443Z,938
2016-11-05T13:00:09.508Z,938
2016-11-05T13:01:12.683Z,938
2016-11-05T13:02:13.169Z,938
2016-11-05T13:03:12.433Z,938
2016-11-05T13:04:14.035Z,938
2016-11-05T13:05:12.948Z,938
2016-11-05T13:06:14.250Z,938
2016-11-05T13:07:12.966Z,938
2016-11-05T13:08:14.605Z,937
2016-11-05T13:09:12.774Z,938
2016-11-05T13:10:10.873Z,938
2016-11-05T13:11:13.043Z,938
2016-11-05T13:12:16.180Z,938
2016-11-05T13:13:13.307Z,938
2016-11-05T13:14:13.432Z,938
2016-11-05T13:15:17.653Z,938
2016-11-05T13:16:12.784Z,938
2016-11-05T13:17:14.601Z,938
2016-11-05T13:18:14.342Z,938
2016-11-05T13:19:12.300Z,938
2016-11-05T13:20:09.542Z,938
2016-11-05T13:21:11.810Z,938
2016-11-05T13:22:12.952Z,937
2016-11-05T13:23:12.314Z,937
2016-11-05T13:24:12.650Z,937
2016-11-05T13:25:12.536Z,937
2016-11-05T13:26:12.481Z,937
2016-11-05T13:27:12.609Z,937
2016-11-05T13:28:12.563Z,937
2016-11-05T13:29:10.465Z,937
2016-11-05T13:30:12.570Z,938
2016-11-05T13:31:13.160Z,937
2016-11-05T13:32:20.046Z,937
2016-11-05T13:33:13.189Z,937
2016-11-05T13:34:13.045Z,937
2016-11-05T13:35:12.117Z,937
2016-11-05T13:36:13.235Z,937
2016-11-05T13:37:12.217Z,937
2016-11-05T13:38:12.661Z,937
2016-11-05T13:39:12.159Z,938
2016-11-05T13:40:12.625Z,937
2016-11-05T13:41:12.744Z,937
2016-11-05T13:42:13.643Z,937
2016-11-05T13:43:13.290Z,937
2016-11-05T13:44:12.242Z,938
2016-11-05T13:45:12.137Z,938
2016-11-05T13:46:13.185Z,938